sensor_id;sensor_type;location;lat;lon;timestamp;P1;durP1;ratioP1;P2;durP2;ratioP2
18296;SDS011;18066;52.106;5.534;2022-07-18T00:00:34;9.60;;;7.10;;
18296;SDS011;18066;52.106;5.534;2022-07-18T00:03:01;10.63;;;7.10;;
18296;SDS011;18066;52.106;5.534;2022-07-18T00:05:28;9.07;;;6.50;;
18296;SDS011;18066;52.106;5.534;2022-07-18T00:07:54;12.00;;;7.53;;
18296;SDS011;18066;52.106;5.534;2022-07-18T00:10:21;11.80;;;6.90;;
18296;SDS011;18066;52.106;5.534;2022-07-18T00:12:48;11.75;;;6.93;;
18296;SDS011;18066;52.106;5.534;2022-07-18T00:15:16;11.90;;;7.65;;
18296;SDS011;18066;52.106;5.534;2022-07-18T00:17:42;10.32;;;7.03;;
18296;SDS011;18066;52.106;5.534;2022-07-18T00:20:10;13.80;;;7.18;;
18296;SDS011;18066;52.106;5.534;2022-07-18T00:22:37;11.25;;;6.47;;
18296;SDS011;18066;52.106;5.534;2022-07-18T00:25:05;8.52;;;6.75;;
18296;SDS011;18066;52.106;5.534;2022-07-18T00:27:32;11.48;;;7.10;;
18296;SDS011;18066;52.106;5.534;2022-07-18T00:29:59;13.00;;;7.15;;
18296;SDS011;18066;52.106;5.534;2022-07-18T00:32:27;12.18;;;6.72;;
18296;SDS011;18066;52.106;5.534;2022-07-18T00:34:54;11.13;;;6.57;;
18296;SDS011;18066;52.106;5.534;2022-07-18T00:37:21;11.63;;;6.88;;
18296;SDS011;18066;52.106;5.534;2022-07-18T00:39:47;14.27;;;7.20;;
18296;SDS011;18066;52.106;5.534;2022-07-18T00:42:14;14.32;;;7.05;;
18296;SDS011;18066;52.106;5.534;2022-07-18T00:44:41;14.05;;;6.93;;
18296;SDS011;18066;52.106;5.534;2022-07-18T00:47:08;10.25;;;7.43;;
18296;SDS011;18066;52.106;5.534;2022-07-18T00:49:36;11.07;;;7.07;;
18296;SDS011;18066;52.106;5.534;2022-07-18T00:52:03;8.98;;;6.40;;
18296;SDS011;18066;52.106;5.534;2022-07-18T00:54:31;11.75;;;6.35;;
18296;SDS011;18066;52.106;5.534;2022-07-18T00:56:57;11.82;;;6.55;;
18296;SDS011;18066;52.106;5.534;2022-07-18T00:59:25;11.82;;;6.00;;
18296;SDS011;18066;52.106;5.534;2022-07-18T01:02:12;9.82;;;6.47;;
18296;SDS011;18066;52.106;5.534;2022-07-18T01:04:39;9.13;;;6.40;;
18296;SDS011;18066;52.106;5.534;2022-07-18T01:07:06;12.32;;;6.53;;
18296;SDS011;18066;52.106;5.534;2022-07-18T01:09:33;7.90;;;6.00;;
18296;SDS011;18066;52.106;5.534;2022-07-18T01:12:00;11.73;;;6.38;;
18296;SDS011;18066;52.106;5.534;2022-07-18T01:14:27;11.05;;;5.78;;
18296;SDS011;18066;52.106;5.534;2022-07-18T01:16:54;10.10;;;6.70;;
18296;SDS011;18066;52.106;5.534;2022-07-18T01:19:22;14.00;;;6.22;;
18296;SDS011;18066;52.106;5.534;2022-07-18T01:21:50;11.20;;;6.20;;
18296;SDS011;18066;52.106;5.534;2022-07-18T01:24:16;11.65;;;6.45;;
18296;SDS011;18066;52.106;5.534;2022-07-18T01:26:43;9.73;;;6.00;;
18296;SDS011;18066;52.106;5.534;2022-07-18T01:29:10;10.90;;;6.13;;
18296;SDS011;18066;52.106;5.534;2022-07-18T01:31:36;9.77;;;5.93;;
18296;SDS011;18066;52.106;5.534;2022-07-18T01:34:03;8.70;;;6.13;;
18296;SDS011;18066;52.106;5.534;2022-07-18T01:36:30;9.40;;;6.35;;
18296;SDS011;18066;52.106;5.534;2022-07-18T01:38:58;10.80;;;6.00;;
18296;SDS011;18066;52.106;5.534;2022-07-18T01:41:24;10.10;;;6.55;;
18296;SDS011;18066;52.106;5.534;2022-07-18T01:43:51;10.48;;;5.90;;
18296;SDS011;18066;52.106;5.534;2022-07-18T01:46:18;10.40;;;6.13;;
18296;SDS011;18066;52.106;5.534;2022-07-18T01:48:44;11.02;;;6.05;;
18296;SDS011;18066;52.106;5.534;2022-07-18T01:51:11;8.60;;;6.00;;
18296;SDS011;18066;52.106;5.534;2022-07-18T01:53:38;12.65;;;6.07;;
18296;SDS011;18066;52.106;5.534;2022-07-18T01:56:07;12.60;;;6.30;;
18296;SDS011;18066;52.106;5.534;2022-07-18T01:58:34;9.80;;;5.78;;
18296;SDS011;18066;52.106;5.534;2022-07-18T02:01:01;8.82;;;6.00;;
18296;SDS011;18066;52.106;5.534;2022-07-18T02:03:27;12.85;;;6.20;;
18296;SDS011;18066;52.106;5.534;2022-07-18T02:05:54;10.48;;;6.30;;
18296;SDS011;18066;52.106;5.534;2022-07-18T02:08:21;10.27;;;6.60;;
18296;SDS011;18066;52.106;5.534;2022-07-18T02:10:47;9.07;;;5.93;;
18296;SDS011;18066;52.106;5.534;2022-07-18T02:13:16;10.73;;;6.00;;
18296;SDS011;18066;52.106;5.534;2022-07-18T02:15:45;9.80;;;6.33;;
18296;SDS011;18066;52.106;5.534;2022-07-18T02:18:11;10.27;;;5.97;;
18296;SDS011;18066;52.106;5.534;2022-07-18T02:20:38;9.15;;;6.32;;
18296;SDS011;18066;52.106;5.534;2022-07-18T02:23:05;11.23;;;6.35;;
18296;SDS011;18066;52.106;5.534;2022-07-18T02:25:33;12.82;;;6.35;;
18296;SDS011;18066;52.106;5.534;2022-07-18T02:27:59;8.63;;;6.00;;
18296;SDS011;18066;52.106;5.534;2022-07-18T02:30:27;11.40;;;6.03;;
18296;SDS011;18066;52.106;5.534;2022-07-18T02:32:54;11.07;;;5.38;;
18296;SDS011;18066;52.106;5.534;2022-07-18T02:35:21;9.07;;;6.22;;
18296;SDS011;18066;52.106;5.534;2022-07-18T02:37:47;11.10;;;5.90;;
18296;SDS011;18066;52.106;5.534;2022-07-18T02:40:14;11.23;;;6.18;;
18296;SDS011;18066;52.106;5.534;2022-07-18T02:42:41;10.70;;;6.73;;
18296;SDS011;18066;52.106;5.534;2022-07-18T02:45:08;11.57;;;5.55;;
18296;SDS011;18066;52.106;5.534;2022-07-18T02:47:37;9.33;;;5.73;;
18296;SDS011;18066;52.106;5.534;2022-07-18T02:50:04;10.70;;;5.88;;
18296;SDS011;18066;52.106;5.534;2022-07-18T02:52:31;8.50;;;5.50;;
18296;SDS011;18066;52.106;5.534;2022-07-18T02:54:58;10.38;;;5.90;;
18296;SDS011;18066;52.106;5.534;2022-07-18T02:57:25;11.27;;;5.80;;
18296;SDS011;18066;52.106;5.534;2022-07-18T02:59:52;9.47;;;5.97;;
18296;SDS011;18066;52.106;5.534;2022-07-18T03:02:19;9.37;;;6.23;;
18296;SDS011;18066;52.106;5.534;2022-07-18T03:04:47;9.90;;;5.53;;
18296;SDS011;18066;52.106;5.534;2022-07-18T03:07:14;11.00;;;5.70;;
18296;SDS011;18066;52.106;5.534;2022-07-18T03:09:40;10.13;;;5.53;;
18296;SDS011;18066;52.106;5.534;2022-07-18T03:12:07;13.43;;;5.93;;
18296;SDS011;18066;52.106;5.534;2022-07-18T03:14:34;10.23;;;5.93;;
18296;SDS011;18066;52.106;5.534;2022-07-18T03:17:00;9.63;;;5.73;;
18296;SDS011;18066;52.106;5.534;2022-07-18T03:19:27;8.67;;;5.77;;
18296;SDS011;18066;52.106;5.534;2022-07-18T03:21:55;7.97;;;5.50;;
18296;SDS011;18066;52.106;5.534;2022-07-18T03:24:22;11.77;;;6.30;;
18296;SDS011;18066;52.106;5.534;2022-07-18T03:26:49;8.37;;;6.30;;
18296;SDS011;18066;52.106;5.534;2022-07-18T03:29:16;10.67;;;5.87;;
18296;SDS011;18066;52.106;5.534;2022-07-18T03:31:44;15.15;;;6.22;;
18296;SDS011;18066;52.106;5.534;2022-07-18T03:34:11;9.60;;;5.60;;
18296;SDS011;18066;52.106;5.534;2022-07-18T03:36:37;10.83;;;6.80;;
18296;SDS011;18066;52.106;5.534;2022-07-18T03:39:06;8.93;;;5.80;;
18296;SDS011;18066;52.106;5.534;2022-07-18T03:41:33;8.70;;;5.77;;
18296;SDS011;18066;52.106;5.534;2022-07-18T03:44:00;10.37;;;6.20;;
18296;SDS011;18066;52.106;5.534;2022-07-18T03:46:27;9.40;;;5.63;;
18296;SDS011;18066;52.106;5.534;2022-07-18T03:48:54;12.07;;;5.83;;
18296;SDS011;18066;52.106;5.534;2022-07-18T03:51:21;10.37;;;5.83;;
18296;SDS011;18066;52.106;5.534;2022-07-18T03:53:47;11.97;;;6.00;;
18296;SDS011;18066;52.106;5.534;2022-07-18T03:56:16;10.13;;;5.97;;
18296;SDS011;18066;52.106;5.534;2022-07-18T03:58:42;7.93;;;5.80;;
18296;SDS011;18066;52.106;5.534;2022-07-18T04:01:09;9.10;;;5.20;;
18296;SDS011;18066;52.106;5.534;2022-07-18T04:03:36;10.50;;;6.33;;
18296;SDS011;18066;52.106;5.534;2022-07-18T04:06:03;11.37;;;5.53;;
18296;SDS011;18066;52.106;5.534;2022-07-18T04:08:30;11.60;;;6.13;;
18296;SDS011;18066;52.106;5.534;2022-07-18T04:10:56;9.27;;;5.33;;
18296;SDS011;18066;52.106;5.534;2022-07-18T04:13:24;11.00;;;5.57;;
18296;SDS011;18066;52.106;5.534;2022-07-18T04:15:51;11.70;;;6.07;;
18296;SDS011;18066;52.106;5.534;2022-07-18T04:18:18;10.00;;;5.57;;
18296;SDS011;18066;52.106;5.534;2022-07-18T04:20:44;11.07;;;6.27;;
18296;SDS011;18066;52.106;5.534;2022-07-18T04:23:11;10.87;;;6.00;;
18296;SDS011;18066;52.106;5.534;2022-07-18T04:25:39;11.20;;;6.07;;
18296;SDS011;18066;52.106;5.534;2022-07-18T04:28:08;8.90;;;6.13;;
18296;SDS011;18066;52.106;5.534;2022-07-18T04:30:37;10.23;;;6.30;;
18296;SDS011;18066;52.106;5.534;2022-07-18T04:33:06;8.63;;;5.50;;
18296;SDS011;18066;52.106;5.534;2022-07-18T04:35:34;11.40;;;5.93;;
18296;SDS011;18066;52.106;5.534;2022-07-18T04:38:03;11.85;;;6.38;;
18296;SDS011;18066;52.106;5.534;2022-07-18T04:40:30;10.13;;;6.10;;
18296;SDS011;18066;52.106;5.534;2022-07-18T04:42:57;10.37;;;5.53;;
18296;SDS011;18066;52.106;5.534;2022-07-18T04:45:23;9.20;;;5.07;;
18296;SDS011;18066;52.106;5.534;2022-07-18T04:47:52;14.17;;;5.93;;
18296;SDS011;18066;52.106;5.534;2022-07-18T04:50:20;13.10;;;5.50;;
18296;SDS011;18066;52.106;5.534;2022-07-18T04:52:48;9.77;;;5.67;;
18296;SDS011;18066;52.106;5.534;2022-07-18T04:55:15;10.63;;;5.82;;
18296;SDS011;18066;52.106;5.534;2022-07-18T04:57:43;8.57;;;5.40;;
18296;SDS011;18066;52.106;5.534;2022-07-18T05:00:12;11.13;;;5.45;;
18296;SDS011;18066;52.106;5.534;2022-07-18T05:02:41;11.47;;;5.07;;
18296;SDS011;18066;52.106;5.534;2022-07-18T05:05:10;7.77;;;5.50;;
18296;SDS011;18066;52.106;5.534;2022-07-18T05:07:38;13.20;;;5.40;;
18296;SDS011;18066;52.106;5.534;2022-07-18T05:10:07;7.85;;;4.80;;
18296;SDS011;18066;52.106;5.534;2022-07-18T05:12:34;6.68;;;5.10;;
18296;SDS011;18066;52.106;5.534;2022-07-18T05:15:03;10.63;;;5.05;;
18296;SDS011;18066;52.106;5.534;2022-07-18T05:17:31;12.60;;;5.38;;
18296;SDS011;18066;52.106;5.534;2022-07-18T05:19:58;9.45;;;5.70;;
18296;SDS011;18066;52.106;5.534;2022-07-18T05:22:26;9.07;;;5.60;;
18296;SDS011;18066;52.106;5.534;2022-07-18T05:24:53;11.40;;;5.35;;
18296;SDS011;18066;52.106;5.534;2022-07-18T05:27:19;11.05;;;5.10;;
18296;SDS011;18066;52.106;5.534;2022-07-18T05:29:46;11.38;;;4.97;;
18296;SDS011;18066;52.106;5.534;2022-07-18T05:32:13;11.57;;;5.45;;
18296;SDS011;18066;52.106;5.534;2022-07-18T05:34:40;9.00;;;5.13;;
18296;SDS011;18066;52.106;5.534;2022-07-18T05:37:06;11.32;;;5.22;;
18296;SDS011;18066;52.106;5.534;2022-07-18T05:39:34;7.25;;;5.15;;
18296;SDS011;18066;52.106;5.534;2022-07-18T05:42:01;10.60;;;5.70;;
18296;SDS011;18066;52.106;5.534;2022-07-18T05:44:28;13.75;;;5.38;;
18296;SDS011;18066;52.106;5.534;2022-07-18T05:46:55;12.13;;;5.68;;
18296;SDS011;18066;52.106;5.534;2022-07-18T05:49:22;18.48;;;5.22;;
18296;SDS011;18066;52.106;5.534;2022-07-18T05:51:49;10.63;;;4.93;;
18296;SDS011;18066;52.106;5.534;2022-07-18T05:54:15;10.98;;;5.20;;
18296;SDS011;18066;52.106;5.534;2022-07-18T05:56:45;8.38;;;4.70;;
18296;SDS011;18066;52.106;5.534;2022-07-18T05:59:13;14.98;;;5.38;;
18296;SDS011;18066;52.106;5.534;2022-07-18T06:01:40;15.88;;;5.03;;
18296;SDS011;18066;52.106;5.534;2022-07-18T06:04:06;10.88;;;5.28;;
18296;SDS011;18066;52.106;5.534;2022-07-18T06:06:33;8.23;;;4.07;;
18296;SDS011;18066;52.106;5.534;2022-07-18T06:09:00;10.38;;;4.57;;
18296;SDS011;18066;52.106;5.534;2022-07-18T06:11:26;9.70;;;4.95;;
18296;SDS011;18066;52.106;5.534;2022-07-18T06:13:55;9.05;;;4.43;;
18296;SDS011;18066;52.106;5.534;2022-07-18T06:16:21;10.23;;;4.13;;
18296;SDS011;18066;52.106;5.534;2022-07-18T06:18:48;9.02;;;4.55;;
18296;SDS011;18066;52.106;5.534;2022-07-18T06:21:15;8.40;;;4.68;;
18296;SDS011;18066;52.106;5.534;2022-07-18T06:23:42;10.73;;;5.00;;
18296;SDS011;18066;52.106;5.534;2022-07-18T06:26:08;7.80;;;4.20;;
18296;SDS011;18066;52.106;5.534;2022-07-18T06:28:35;7.45;;;4.45;;
18296;SDS011;18066;52.106;5.534;2022-07-18T06:31:03;10.65;;;4.70;;
18296;SDS011;18066;52.106;5.534;2022-07-18T06:33:30;8.95;;;4.95;;
18296;SDS011;18066;52.106;5.534;2022-07-18T06:35:57;9.55;;;4.75;;
18296;SDS011;18066;52.106;5.534;2022-07-18T06:38:24;8.82;;;4.63;;
18296;SDS011;18066;52.106;5.534;2022-07-18T06:40:51;7.85;;;4.25;;
18296;SDS011;18066;52.106;5.534;2022-07-18T06:43:17;7.40;;;4.40;;
18296;SDS011;18066;52.106;5.534;2022-07-18T06:45:45;11.20;;;4.03;;
18296;SDS011;18066;52.106;5.534;2022-07-18T06:48:13;6.43;;;4.10;;
18296;SDS011;18066;52.106;5.534;2022-07-18T06:50:40;7.50;;;3.53;;
18296;SDS011;18066;52.106;5.534;2022-07-18T06:53:07;7.35;;;3.92;;
18296;SDS011;18066;52.106;5.534;2022-07-18T06:55:34;5.97;;;3.42;;
18296;SDS011;18066;52.106;5.534;2022-07-18T06:58:00;5.82;;;3.53;;
18296;SDS011;18066;52.106;5.534;2022-07-18T07:00:27;7.13;;;3.42;;
18296;SDS011;18066;52.106;5.534;2022-07-18T07:02:54;4.18;;;3.13;;
18296;SDS011;18066;52.106;5.534;2022-07-18T07:05:22;6.75;;;3.60;;
18296;SDS011;18066;52.106;5.534;2022-07-18T07:07:49;9.95;;;3.60;;
18296;SDS011;18066;52.106;5.534;2022-07-18T07:10:16;6.40;;;3.45;;
18296;SDS011;18066;52.106;5.534;2022-07-18T07:12:43;6.82;;;3.50;;
18296;SDS011;18066;52.106;5.534;2022-07-18T07:15:11;8.95;;;3.20;;
18296;SDS011;18066;52.106;5.534;2022-07-18T07:17:39;6.60;;;3.00;;
18296;SDS011;18066;52.106;5.534;2022-07-18T07:20:06;5.68;;;2.72;;
18296;SDS011;18066;52.106;5.534;2022-07-18T07:22:41;7.10;;;3.05;;
18296;SDS011;18066;52.106;5.534;2022-07-18T07:25:09;5.85;;;3.42;;
18296;SDS011;18066;52.106;5.534;2022-07-18T07:27:36;4.88;;;2.80;;
18296;SDS011;18066;52.106;5.534;2022-07-18T07:30:03;7.97;;;2.80;;
18296;SDS011;18066;52.106;5.534;2022-07-18T07:32:33;8.80;;;3.35;;
18296;SDS011;18066;52.106;5.534;2022-07-18T07:35:00;8.00;;;3.08;;
18296;SDS011;18066;52.106;5.534;2022-07-18T07:37:27;4.75;;;2.95;;
18296;SDS011;18066;52.106;5.534;2022-07-18T07:39:55;6.50;;;2.97;;
18296;SDS011;18066;52.106;5.534;2022-07-18T07:42:22;6.68;;;3.30;;
18296;SDS011;18066;52.106;5.534;2022-07-18T07:44:48;5.28;;;2.90;;
18296;SDS011;18066;52.106;5.534;2022-07-18T07:47:15;7.30;;;3.10;;
18296;SDS011;18066;52.106;5.534;2022-07-18T07:49:42;5.65;;;2.53;;
18296;SDS011;18066;52.106;5.534;2022-07-18T07:52:09;5.63;;;2.95;;
18296;SDS011;18066;52.106;5.534;2022-07-18T07:54:36;6.97;;;2.97;;
18296;SDS011;18066;52.106;5.534;2022-07-18T07:57:05;6.60;;;2.95;;
18296;SDS011;18066;52.106;5.534;2022-07-18T07:59:32;6.35;;;2.47;;
18296;SDS011;18066;52.106;5.534;2022-07-18T08:01:59;5.80;;;2.60;;
18296;SDS011;18066;52.106;5.534;2022-07-18T08:04:25;4.75;;;2.38;;
18296;SDS011;18066;52.106;5.534;2022-07-18T08:06:52;4.40;;;2.70;;
18296;SDS011;18066;52.106;5.534;2022-07-18T08:09:19;6.20;;;2.80;;
18296;SDS011;18066;52.106;5.534;2022-07-18T08:11:46;5.47;;;2.67;;
18296;SDS011;18066;52.106;5.534;2022-07-18T08:14:14;6.20;;;3.00;;
18296;SDS011;18066;52.106;5.534;2022-07-18T08:16:40;10.15;;;2.78;;
18296;SDS011;18066;52.106;5.534;2022-07-18T08:19:08;5.82;;;2.90;;
18296;SDS011;18066;52.106;5.534;2022-07-18T08:21:34;9.60;;;3.00;;
18296;SDS011;18066;52.106;5.534;2022-07-18T08:24:01;5.32;;;2.67;;
18296;SDS011;18066;52.106;5.534;2022-07-18T08:26:28;7.63;;;3.25;;
18296;SDS011;18066;52.106;5.534;2022-07-18T08:28:55;5.85;;;2.08;;
18296;SDS011;18066;52.106;5.534;2022-07-18T08:31:23;5.82;;;2.58;;
18296;SDS011;18066;52.106;5.534;2022-07-18T08:33:50;7.93;;;2.83;;
18296;SDS011;18066;52.106;5.534;2022-07-18T08:36:17;5.38;;;2.75;;
18296;SDS011;18066;52.106;5.534;2022-07-18T08:38:45;6.45;;;2.72;;
18296;SDS011;18066;52.106;5.534;2022-07-18T08:41:12;5.07;;;2.35;;
18296;SDS011;18066;52.106;5.534;2022-07-18T08:43:41;8.88;;;2.50;;
18296;SDS011;18066;52.106;5.534;2022-07-18T08:46:09;7.32;;;2.53;;
18296;SDS011;18066;52.106;5.534;2022-07-18T08:48:39;5.93;;;2.30;;
18296;SDS011;18066;52.106;5.534;2022-07-18T08:51:05;4.13;;;1.60;;
18296;SDS011;18066;52.106;5.534;2022-07-18T08:53:32;7.22;;;2.63;;
18296;SDS011;18066;52.106;5.534;2022-07-18T08:56:02;5.82;;;1.90;;
18296;SDS011;18066;52.106;5.534;2022-07-18T08:58:29;4.00;;;2.15;;
18296;SDS011;18066;52.106;5.534;2022-07-18T09:00:57;3.95;;;2.13;;
18296;SDS011;18066;52.106;5.534;2022-07-18T09:03:24;7.43;;;2.47;;
18296;SDS011;18066;52.106;5.534;2022-07-18T09:06:03;8.65;;;2.20;;
18296;SDS011;18066;52.106;5.534;2022-07-18T09:08:31;6.30;;;2.47;;
18296;SDS011;18066;52.106;5.534;2022-07-18T09:10:58;7.55;;;1.95;;
18296;SDS011;18066;52.106;5.534;2022-07-18T09:13:29;6.93;;;1.80;;
18296;SDS011;18066;52.106;5.534;2022-07-18T09:16:02;5.03;;;1.75;;
18296;SDS011;18066;52.106;5.534;2022-07-18T09:18:33;5.13;;;1.67;;
18296;SDS011;18066;52.106;5.534;2022-07-18T09:21:01;5.57;;;1.70;;
18296;SDS011;18066;52.106;5.534;2022-07-18T09:23:30;6.90;;;2.03;;
18296;SDS011;18066;52.106;5.534;2022-07-18T09:25:58;3.08;;;1.98;;
18296;SDS011;18066;52.106;5.534;2022-07-18T09:28:28;1.83;;;1.30;;
18296;SDS011;18066;52.106;5.534;2022-07-18T09:31:16;3.53;;;1.63;;
18296;SDS011;18066;52.106;5.534;2022-07-18T09:33:50;3.33;;;1.83;;
18296;SDS011;18066;52.106;5.534;2022-07-18T09:36:19;1.77;;;1.33;;
18296;SDS011;18066;52.106;5.534;2022-07-18T09:38:45;4.20;;;1.30;;
18296;SDS011;18066;52.106;5.534;2022-07-18T09:41:12;4.82;;;1.80;;
18296;SDS011;18066;52.106;5.534;2022-07-18T09:43:39;7.13;;;2.17;;
18296;SDS011;18066;52.106;5.534;2022-07-18T09:46:06;2.92;;;1.50;;
18296;SDS011;18066;52.106;5.534;2022-07-18T09:48:34;6.18;;;1.85;;
18296;SDS011;18066;52.106;5.534;2022-07-18T09:51:01;2.75;;;1.73;;
18296;SDS011;18066;52.106;5.534;2022-07-18T09:53:31;3.00;;;1.50;;
18296;SDS011;18066;52.106;5.534;2022-07-18T09:56:00;2.05;;;1.70;;
18296;SDS011;18066;52.106;5.534;2022-07-18T09:58:28;2.40;;;1.70;;
18296;SDS011;18066;52.106;5.534;2022-07-18T10:00:57;3.78;;;1.65;;
18296;SDS011;18066;52.106;5.534;2022-07-18T10:03:25;1.73;;;1.45;;
18296;SDS011;18066;52.106;5.534;2022-07-18T10:05:53;4.00;;;1.75;;
18296;SDS011;18066;52.106;5.534;2022-07-18T10:08:21;4.60;;;1.60;;
18296;SDS011;18066;52.106;5.534;2022-07-18T10:10:51;3.92;;;1.85;;
18296;SDS011;18066;52.106;5.534;2022-07-18T10:13:19;2.60;;;1.63;;
18296;SDS011;18066;52.106;5.534;2022-07-18T10:15:48;5.20;;;2.05;;
18296;SDS011;18066;52.106;5.534;2022-07-18T10:18:16;6.25;;;1.92;;
18296;SDS011;18066;52.106;5.534;2022-07-18T10:20:45;5.90;;;2.60;;
18296;SDS011;18066;52.106;5.534;2022-07-18T10:23:16;2.88;;;1.80;;
18296;SDS011;18066;52.106;5.534;2022-07-18T10:25:44;4.40;;;2.00;;
18296;SDS011;18066;52.106;5.534;2022-07-18T10:28:29;3.67;;;1.80;;
18296;SDS011;18066;52.106;5.534;2022-07-18T10:30:56;6.47;;;1.77;;
18296;SDS011;18066;52.106;5.534;2022-07-18T10:33:40;3.67;;;1.92;;
18296;SDS011;18066;52.106;5.534;2022-07-18T10:36:11;2.70;;;1.88;;
18296;SDS011;18066;52.106;5.534;2022-07-18T10:41:33;4.88;;;2.22;;
18296;SDS011;18066;52.106;5.534;2022-07-18T10:44:39;5.63;;;2.22;;
18296;SDS011;18066;52.106;5.534;2022-07-18T10:47:06;6.03;;;2.00;;
18296;SDS011;18066;52.106;5.534;2022-07-18T10:55:31;23.38;;;5.15;;
18296;SDS011;18066;52.106;5.534;2022-07-18T10:58:17;5.20;;;1.92;;
18296;SDS011;18066;52.106;5.534;2022-07-18T11:00:45;4.35;;;2.20;;
18296;SDS011;18066;52.106;5.534;2022-07-18T11:03:15;9.23;;;2.20;;
18296;SDS011;18066;52.106;5.534;2022-07-18T11:05:44;5.78;;;2.60;;
18296;SDS011;18066;52.106;5.534;2022-07-18T11:08:15;8.60;;;2.20;;
18296;SDS011;18066;52.106;5.534;2022-07-18T11:13:35;9.80;;;2.95;;
18296;SDS011;18066;52.106;5.534;2022-07-18T11:16:03;3.25;;;2.08;;
18296;SDS011;18066;52.106;5.534;2022-07-18T11:21:41;2.70;;;1.27;;
18296;SDS011;18066;52.106;5.534;2022-07-18T11:24:09;1.98;;;1.48;;
18296;SDS011;18066;52.106;5.534;2022-07-18T11:26:39;3.03;;;1.40;;
18296;SDS011;18066;52.106;5.534;2022-07-18T11:29:11;6.35;;;1.50;;
18296;SDS011;18066;52.106;5.534;2022-07-18T11:31:42;3.00;;;1.45;;
18296;SDS011;18066;52.106;5.534;2022-07-18T11:34:10;2.10;;;1.30;;
18296;SDS011;18066;52.106;5.534;2022-07-18T11:36:39;4.80;;;1.27;;
18296;SDS011;18066;52.106;5.534;2022-07-18T11:39:07;2.80;;;1.40;;
18296;SDS011;18066;52.106;5.534;2022-07-18T11:41:36;3.22;;;1.42;;
18296;SDS011;18066;52.106;5.534;2022-07-18T11:44:05;3.35;;;1.50;;
18296;SDS011;18066;52.106;5.534;2022-07-18T11:46:33;4.10;;;1.58;;
18296;SDS011;18066;52.106;5.534;2022-07-18T11:49:01;4.97;;;1.52;;
18296;SDS011;18066;52.106;5.534;2022-07-18T11:51:33;4.25;;;1.50;;
18296;SDS011;18066;52.106;5.534;2022-07-18T11:54:02;5.18;;;1.67;;
18296;SDS011;18066;52.106;5.534;2022-07-18T11:56:30;2.47;;;1.63;;
18296;SDS011;18066;52.106;5.534;2022-07-18T11:58:56;5.43;;;1.95;;
18296;SDS011;18066;52.106;5.534;2022-07-18T12:01:29;2.92;;;1.60;;
18296;SDS011;18066;52.106;5.534;2022-07-18T12:03:58;5.03;;;1.60;;
18296;SDS011;18066;52.106;5.534;2022-07-18T12:06:27;6.63;;;1.38;;
18296;SDS011;18066;52.106;5.534;2022-07-18T12:08:54;2.17;;;1.60;;
18296;SDS011;18066;52.106;5.534;2022-07-18T12:11:26;3.10;;;1.30;;
18296;SDS011;18066;52.106;5.534;2022-07-18T12:13:55;5.47;;;1.90;;
18296;SDS011;18066;52.106;5.534;2022-07-18T12:16:33;3.00;;;1.48;;
18296;SDS011;18066;52.106;5.534;2022-07-18T12:19:04;2.63;;;1.42;;
18296;SDS011;18066;52.106;5.534;2022-07-18T12:21:42;4.43;;;1.40;;
18296;SDS011;18066;52.106;5.534;2022-07-18T12:27:18;4.43;;;1.70;;
18296;SDS011;18066;52.106;5.534;2022-07-18T12:29:59;3.65;;;1.77;;
18296;SDS011;18066;52.106;5.534;2022-07-18T12:32:35;4.00;;;1.70;;
18296;SDS011;18066;52.106;5.534;2022-07-18T12:35:09;3.03;;;1.70;;
18296;SDS011;18066;52.106;5.534;2022-07-18T12:37:38;2.90;;;1.70;;
18296;SDS011;18066;52.106;5.534;2022-07-18T12:40:06;3.97;;;1.63;;
18296;SDS011;18066;52.106;5.534;2022-07-18T12:42:35;2.35;;;1.60;;
18296;SDS011;18066;52.106;5.534;2022-07-18T12:45:03;5.40;;;1.63;;
18296;SDS011;18066;52.106;5.534;2022-07-18T12:47:31;1.92;;;1.70;;
18296;SDS011;18066;52.106;5.534;2022-07-18T12:49:58;2.42;;;2.00;;
18296;SDS011;18066;52.106;5.534;2022-07-18T12:52:26;4.68;;;1.90;;
18296;SDS011;18066;52.106;5.534;2022-07-18T12:54:53;3.85;;;1.50;;
18296;SDS011;18066;52.106;5.534;2022-07-18T12:57:19;3.42;;;1.75;;
18296;SDS011;18066;52.106;5.534;2022-07-18T12:59:47;3.90;;;1.63;;
18296;SDS011;18066;52.106;5.534;2022-07-18T13:02:14;3.00;;;1.70;;
18296;SDS011;18066;52.106;5.534;2022-07-18T13:04:41;8.02;;;2.17;;
18296;SDS011;18066;52.106;5.534;2022-07-18T13:07:08;3.75;;;2.00;;
18296;SDS011;18066;52.106;5.534;2022-07-18T13:09:37;2.28;;;2.08;;
18296;SDS011;18066;52.106;5.534;2022-07-18T13:12:04;6.25;;;1.80;;
18296;SDS011;18066;52.106;5.534;2022-07-18T13:14:32;7.97;;;2.40;;
18296;SDS011;18066;52.106;5.534;2022-07-18T13:17:00;2.38;;;2.00;;
18296;SDS011;18066;52.106;5.534;2022-07-18T13:19:27;6.35;;;2.45;;
18296;SDS011;18066;52.106;5.534;2022-07-18T13:21:55;5.30;;;2.08;;
18296;SDS011;18066;52.106;5.534;2022-07-18T13:24:23;5.25;;;2.17;;
18296;SDS011;18066;52.106;5.534;2022-07-18T13:26:51;5.00;;;1.92;;
18296;SDS011;18066;52.106;5.534;2022-07-18T13:29:18;6.70;;;2.10;;
18296;SDS011;18066;52.106;5.534;2022-07-18T13:31:45;3.30;;;2.00;;
18296;SDS011;18066;52.106;5.534;2022-07-18T13:34:13;2.70;;;1.80;;
18296;SDS011;18066;52.106;5.534;2022-07-18T13:36:39;2.65;;;1.90;;
18296;SDS011;18066;52.106;5.534;2022-07-18T13:39:06;4.78;;;2.10;;
18296;SDS011;18066;52.106;5.534;2022-07-18T13:41:33;3.42;;;1.80;;
18296;SDS011;18066;52.106;5.534;2022-07-18T13:44:01;2.83;;;1.67;;
18296;SDS011;18066;52.106;5.534;2022-07-18T13:46:28;6.15;;;1.80;;
18296;SDS011;18066;52.106;5.534;2022-07-18T13:48:55;1.67;;;1.50;;
18296;SDS011;18066;52.106;5.534;2022-07-18T13:51:22;3.63;;;1.77;;
18296;SDS011;18066;52.106;5.534;2022-07-18T13:53:48;4.28;;;1.80;;
18296;SDS011;18066;52.106;5.534;2022-07-18T13:56:15;2.97;;;1.98;;
18296;SDS011;18066;52.106;5.534;2022-07-18T13:58:42;2.55;;;1.70;;
18296;SDS011;18066;52.106;5.534;2022-07-18T14:01:10;3.17;;;1.80;;
18296;SDS011;18066;52.106;5.534;2022-07-18T14:03:38;2.28;;;1.70;;
18296;SDS011;18066;52.106;5.534;2022-07-18T14:06:05;3.60;;;1.73;;
18296;SDS011;18066;52.106;5.534;2022-07-18T14:08:32;4.10;;;1.48;;
18296;SDS011;18066;52.106;5.534;2022-07-18T14:10:58;2.65;;;1.58;;
18296;SDS011;18066;52.106;5.534;2022-07-18T14:13:25;1.85;;;1.40;;
18296;SDS011;18066;52.106;5.534;2022-07-18T14:15:52;8.45;;;1.73;;
18296;SDS011;18066;52.106;5.534;2022-07-18T14:18:20;4.75;;;1.50;;
18296;SDS011;18066;52.106;5.534;2022-07-18T14:20:46;2.85;;;1.70;;
18296;SDS011;18066;52.106;5.534;2022-07-18T14:23:13;3.13;;;1.55;;
18296;SDS011;18066;52.106;5.534;2022-07-18T14:25:40;2.70;;;1.38;;
18296;SDS011;18066;52.106;5.534;2022-07-18T14:28:07;2.63;;;1.33;;
18296;SDS011;18066;52.106;5.534;2022-07-18T14:30:33;1.90;;;1.48;;
18296;SDS011;18066;52.106;5.534;2022-07-18T14:33:00;3.92;;;1.45;;
18296;SDS011;18066;52.106;5.534;2022-07-18T14:35:28;6.53;;;1.60;;
18296;SDS011;18066;52.106;5.534;2022-07-18T14:37:55;2.50;;;1.70;;
18296;SDS011;18066;52.106;5.534;2022-07-18T14:40:22;7.15;;;1.77;;
18296;SDS011;18066;52.106;5.534;2022-07-18T14:42:49;3.72;;;1.67;;
18296;SDS011;18066;52.106;5.534;2022-07-18T14:45:16;5.28;;;2.00;;
18296;SDS011;18066;52.106;5.534;2022-07-18T14:47:43;4.28;;;1.63;;
18296;SDS011;18066;52.106;5.534;2022-07-18T14:50:10;1.83;;;1.40;;
18296;SDS011;18066;52.106;5.534;2022-07-18T14:52:39;1.73;;;1.52;;
18296;SDS011;18066;52.106;5.534;2022-07-18T14:55:06;4.80;;;1.60;;
18296;SDS011;18066;52.106;5.534;2022-07-18T14:57:33;5.65;;;1.73;;
18296;SDS011;18066;52.106;5.534;2022-07-18T15:00:00;11.75;;;2.03;;
18296;SDS011;18066;52.106;5.534;2022-07-18T15:02:28;2.53;;;1.65;;
18296;SDS011;18066;52.106;5.534;2022-07-18T15:04:55;1.38;;;1.27;;